createdAt,value
2023-03-13T00:01:25.119Z,2.80
2023-03-13T00:03:52.012Z,2.40
2023-03-13T00:06:19.057Z,2.40
2023-03-13T00:08:45.927Z,2.50
2023-03-13T00:11:14.364Z,2.72
2023-03-13T00:13:42.935Z,2.80
2023-03-13T00:16:14.194Z,2.22
2023-03-13T00:18:46.686Z,2.70
2023-03-13T00:21:13.364Z,2.50
2023-03-13T00:23:40.291Z,2.30
2023-03-13T00:26:09.465Z,2.70
2023-03-13T00:28:37.647Z,2.57
2023-03-13T00:31:06.491Z,2.40
2023-03-13T00:33:34.565Z,2.88
2023-03-13T00:36:04.938Z,2.40
2023-03-13T00:38:32.489Z,2.53
2023-03-13T00:41:00.974Z,2.33
2023-03-13T00:43:28.080Z,2.55
2023-03-13T00:45:54.948Z,2.45
2023-03-13T00:48:22.329Z,2.70
2023-03-13T00:50:49.513Z,2.30
2023-03-13T00:53:16.290Z,2.55
2023-03-13T00:56:00.601Z,2.90
2023-03-13T00:58:28.870Z,3.00
2023-03-13T01:00:56.230Z,2.73
2023-03-13T01:03:26.114Z,2.40
2023-03-13T01:06:02.395Z,2.60
2023-03-13T01:08:29.700Z,2.67
2023-03-13T01:11:07.092Z,2.90
2023-03-13T01:13:34.390Z,2.90
2023-03-13T01:16:04.478Z,2.83
2023-03-13T01:18:31.435Z,2.60
2023-03-13T01:20:58.158Z,2.65
2023-03-13T01:23:25.746Z,2.70
2023-03-13T01:25:53.807Z,2.80
2023-03-13T01:28:20.545Z,2.42
2023-03-13T01:30:47.318Z,2.80
2023-03-13T01:33:14.075Z,3.00
2023-03-13T01:35:42.034Z,3.10
2023-03-13T01:38:09.081Z,2.58
2023-03-13T01:40:45.840Z,2.65
2023-03-13T01:43:26.184Z,2.38
2023-03-13T01:45:59.331Z,3.05
2023-03-13T01:48:43.326Z,2.72
2023-03-13T01:51:21.330Z,2.75
2023-03-13T01:53:52.669Z,2.80
2023-03-13T01:56:23.695Z,2.50
2023-03-13T01:58:52.263Z,2.80
2023-03-13T02:01:20.154Z,2.90
2023-03-13T02:03:50.011Z,3.03
2023-03-13T02:06:17.832Z,2.90
2023-03-13T02:08:52.688Z,2.42
2023-03-13T02:11:28.901Z,2.72
2023-03-13T02:13:56.472Z,2.90
2023-03-13T02:16:24.102Z,2.45
2023-03-13T02:18:50.888Z,2.50
2023-03-13T02:21:32.018Z,2.80
2023-03-13T02:24:09.952Z,2.78
2023-03-13T02:26:36.681Z,2.42
2023-03-13T02:29:03.471Z,2.55
2023-03-13T02:31:31.593Z,3.20
2023-03-13T02:34:00.670Z,2.60
2023-03-13T02:36:30.533Z,2.70
2023-03-13T02:39:02.619Z,2.97
2023-03-13T02:41:30.221Z,2.80
2023-03-13T02:43:56.982Z,2.77
2023-03-13T02:46:23.707Z,2.65
2023-03-13T02:48:52.864Z,2.35
2023-03-13T02:51:29.465Z,2.50
2023-03-13T02:54:01.825Z,2.50
2023-03-13T02:56:33.600Z,2.50
2023-03-13T02:59:00.550Z,2.77
2023-03-13T03:01:27.259Z,2.50
2023-03-13T03:03:54.017Z,2.40
2023-03-13T03:06:21.158Z,2.83
2023-03-13T03:08:47.929Z,2.47
2023-03-13T03:11:14.747Z,2.83
2023-03-13T03:13:41.632Z,2.50
2023-03-13T03:16:11.931Z,2.90
2023-03-13T03:18:39.145Z,2.30
2023-03-13T03:21:06.779Z,2.65
2023-03-13T03:23:34.274Z,2.20
2023-03-13T03:26:01.744Z,2.30
2023-03-13T03:28:28.913Z,2.60
2023-03-13T03:30:57.769Z,2.55
2023-03-13T03:33:24.791Z,2.58
2023-03-13T03:35:51.485Z,2.60
2023-03-13T03:38:18.271Z,2.55
2023-03-13T03:40:44.994Z,2.15
2023-03-13T03:43:11.651Z,2.33
2023-03-13T03:45:38.284Z,2.55
2023-03-13T03:48:05.275Z,2.30
2023-03-13T03:50:31.934Z,2.20
2023-03-13T03:52:58.606Z,2.43
2023-03-13T03:55:25.293Z,3.13
2023-03-13T03:57:52.051Z,2.47
2023-03-13T04:00:19.808Z,2.70
2023-03-13T04:02:46.466Z,2.40
2023-03-13T04:05:13.276Z,2.50
2023-03-13T04:07:39.947Z,2.60
2023-03-13T04:10:07.271Z,2.85
2023-03-13T04:12:34.096Z,2.50
2023-03-13T04:15:00.776Z,2.40
2023-03-13T04:17:27.610Z,2.50
2023-03-13T04:19:54.258Z,2.63
2023-03-13T04:22:20.974Z,2.70
2023-03-13T04:24:47.734Z,2.42
2023-03-13T04:27:15.525Z,2.45
2023-03-13T04:29:42.223Z,2.05
2023-03-13T04:32:08.942Z,2.60
2023-03-13T04:34:35.842Z,2.42
2023-03-13T04:37:02.814Z,2.53
2023-03-13T04:39:30.950Z,2.55
2023-03-13T04:41:58.665Z,2.20
2023-03-13T04:44:25.372Z,2.20
2023-03-13T04:46:52.114Z,2.10
2023-03-13T04:49:19.179Z,1.80
2023-03-13T04:51:46.258Z,2.20
2023-03-13T04:54:13.329Z,2.35
2023-03-13T04:56:44.370Z,2.47
2023-03-13T04:59:12.906Z,2.38
2023-03-13T05:01:40.814Z,2.20
2023-03-13T05:04:08.455Z,2.40
2023-03-13T05:06:35.191Z,2.22
2023-03-13T05:09:02.828Z,2.40
2023-03-13T05:11:30.065Z,2.05
2023-03-13T05:13:56.935Z,1.90
2023-03-13T05:16:23.752Z,2.00
2023-03-13T05:18:50.415Z,2.38
2023-03-13T05:21:17.359Z,2.25
2023-03-13T05:23:44.148Z,2.30
2023-03-13T05:26:10.886Z,2.10
2023-03-13T05:28:37.592Z,2.08
2023-03-13T05:31:04.539Z,2.20
2023-03-13T05:33:31.270Z,2.30
2023-03-13T05:35:57.937Z,2.35
2023-03-13T05:38:25.368Z,2.25
2023-03-13T05:40:51.999Z,2.60
2023-03-13T05:43:18.630Z,1.90
2023-03-13T05:45:45.326Z,2.15
2023-03-13T05:48:11.949Z,1.80
2023-03-13T05:50:38.725Z,2.05
2023-03-13T05:53:05.421Z,2.08
2023-03-13T05:55:32.097Z,2.25
2023-03-13T05:57:58.833Z,1.90
2023-03-13T06:00:25.626Z,2.10
2023-03-13T06:02:52.306Z,2.15
2023-03-13T06:05:18.952Z,2.30
2023-03-13T06:07:45.623Z,2.25
2023-03-13T06:10:12.707Z,1.90
2023-03-13T06:12:39.362Z,2.10
2023-03-13T06:15:07.286Z,2.40
2023-03-13T06:17:34.014Z,2.83
2023-03-13T06:20:00.663Z,2.30
2023-03-13T06:22:27.451Z,2.10
2023-03-13T06:24:54.117Z,2.13
2023-03-13T06:27:20.833Z,2.17
2023-03-13T06:29:47.498Z,2.15
2023-03-13T06:32:14.297Z,2.10
2023-03-13T06:34:41.004Z,2.00
2023-03-13T06:37:07.715Z,2.22
2023-03-13T06:39:34.457Z,2.10
2023-03-13T06:42:01.248Z,2.00
2023-03-13T06:44:27.958Z,2.03
2023-03-13T06:46:54.722Z,1.70
2023-03-13T06:49:21.441Z,1.98
2023-03-13T06:51:48.075Z,2.10
2023-03-13T06:54:14.888Z,1.80
2023-03-13T06:56:41.574Z,1.90
2023-03-13T06:59:08.230Z,1.80
2023-03-13T07:01:34.887Z,2.03
2023-03-13T07:04:01.650Z,1.70
2023-03-13T07:06:28.339Z,1.70
2023-03-13T07:08:55.145Z,1.80
2023-03-13T07:11:21.895Z,2.00
2023-03-13T07:13:48.524Z,1.67
2023-03-13T07:16:15.408Z,1.77
2023-03-13T07:18:42.266Z,1.67
2023-03-13T07:21:10.335Z,1.85
2023-03-13T07:23:37.033Z,1.80
2023-03-13T07:26:07.502Z,1.67
2023-03-13T07:28:37.328Z,1.85
2023-03-13T07:31:08.282Z,1.95
2023-03-13T07:33:35.257Z,1.85
2023-03-13T07:36:02.439Z,1.63
2023-03-13T07:38:29.124Z,1.98
2023-03-13T07:40:57.452Z,1.77
2023-03-13T07:43:25.051Z,1.80
2023-03-13T07:45:53.706Z,1.93
2023-03-13T07:48:21.377Z,1.60
2023-03-13T07:50:48.848Z,1.75
2023-03-13T07:53:21.045Z,1.90
2023-03-13T07:55:58.986Z,1.75
2023-03-13T07:58:28.670Z,1.70
2023-03-13T08:00:55.730Z,2.03
2023-03-13T08:03:23.410Z,1.75
2023-03-13T08:06:09.888Z,1.87
2023-03-13T08:08:37.930Z,2.20
2023-03-13T08:11:09.133Z,1.50
2023-03-13T08:13:36.328Z,1.65
2023-03-13T08:16:08.194Z,1.55
2023-03-13T08:18:36.217Z,1.50
2023-03-13T08:21:05.187Z,1.55
2023-03-13T08:23:32.551Z,1.30
2023-03-13T08:26:03.547Z,1.70
2023-03-13T08:28:30.326Z,1.67
2023-03-13T08:30:57.008Z,1.17
2023-03-13T08:33:23.841Z,1.00
2023-03-13T08:35:50.621Z,1.40
2023-03-13T08:38:18.445Z,1.45
2023-03-13T08:40:45.081Z,1.40
2023-03-13T08:43:11.956Z,1.60
2023-03-13T08:45:38.576Z,1.40
2023-03-13T08:48:05.314Z,1.48
2023-03-13T08:50:31.919Z,1.30
2023-03-13T08:52:58.596Z,1.38
2023-03-13T08:55:26.558Z,1.30
2023-03-13T08:57:53.269Z,1.58
2023-03-13T09:00:20.317Z,1.70
2023-03-13T09:02:47.017Z,1.23
2023-03-13T09:05:13.849Z,0.98
2023-03-13T09:07:40.839Z,0.95
2023-03-13T09:10:08.084Z,1.10
2023-03-13T09:12:35.042Z,0.80
2023-03-13T09:15:01.745Z,0.73
2023-03-13T09:17:28.387Z,0.80
2023-03-13T09:20:00.617Z,0.70
2023-03-13T09:22:27.949Z,0.80
2023-03-13T09:24:54.669Z,0.73
2023-03-13T09:27:21.327Z,0.77
2023-03-13T09:29:47.989Z,0.90
2023-03-13T09:32:14.704Z,0.68
2023-03-13T09:34:43.127Z,0.80
2023-03-13T09:37:09.814Z,0.75
2023-03-13T09:39:37.092Z,0.70
2023-03-13T09:42:22.698Z,0.80
2023-03-13T09:45:04.015Z,0.80
2023-03-13T09:47:41.291Z,0.63
2023-03-13T09:50:18.014Z,0.60
2023-03-13T09:52:44.913Z,0.50
2023-03-13T09:55:30.964Z,0.70
2023-03-13T09:58:10.519Z,0.60
2023-03-13T10:00:40.908Z,0.60
2023-03-13T10:03:11.829Z,0.80
2023-03-13T10:05:49.370Z,0.77
2023-03-13T10:08:23.058Z,0.52
2023-03-13T10:10:58.918Z,0.68
2023-03-13T10:13:53.493Z,0.52
2023-03-13T10:16:27.257Z,0.63
2023-03-13T10:18:57.068Z,0.60
2023-03-13T10:21:32.052Z,0.80
2023-03-13T10:24:06.028Z,0.85
2023-03-13T10:26:36.162Z,1.00
2023-03-13T10:29:17.172Z,1.20
2023-03-13T10:31:50.307Z,0.93
2023-03-13T10:34:17.007Z,1.10
2023-03-13T10:36:46.895Z,0.70
2023-03-13T10:39:30.087Z,1.30
2023-03-13T10:42:10.655Z,0.90
2023-03-13T10:44:37.709Z,0.90
2023-03-13T10:47:04.944Z,0.90
2023-03-13T10:49:32.404Z,0.70
2023-03-13T10:52:02.687Z,0.80
2023-03-13T10:54:30.904Z,0.70
2023-03-13T10:57:18.577Z,0.93
2023-03-13T10:59:48.756Z,1.10
2023-03-13T11:02:31.839Z,1.05
2023-03-13T11:04:59.810Z,0.90
2023-03-13T11:07:30.827Z,1.00
2023-03-13T11:10:19.659Z,1.10
2023-03-13T11:12:49.294Z,0.93
2023-03-13T11:15:20.308Z,0.95
2023-03-13T11:18:01.216Z,0.90
2023-03-13T11:20:32.949Z,1.63
2023-03-13T11:23:21.294Z,1.02
2023-03-13T11:26:27.807Z,1.10
2023-03-13T11:29:22.708Z,1.00
2023-03-13T11:31:54.492Z,1.40
2023-03-13T11:34:25.738Z,1.48
2023-03-13T11:36:59.295Z,1.20
2023-03-13T11:39:46.880Z,1.30
2023-03-13T11:42:40.160Z,1.00
2023-03-13T11:45:12.159Z,1.30
2023-03-13T11:47:53.885Z,1.30
2023-03-13T11:50:42.428Z,1.20
2023-03-13T11:53:30.090Z,0.98
2023-03-13T11:56:07.936Z,1.20
2023-03-13T11:58:54.917Z,1.30
2023-03-13T12:01:27.628Z,1.42
2023-03-13T12:04:00.157Z,1.20
2023-03-13T12:06:47.174Z,1.40
2023-03-13T12:09:25.723Z,1.60
2023-03-13T12:12:03.415Z,1.30
2023-03-13T12:14:43.740Z,1.17
2023-03-13T12:17:22.893Z,1.45
2023-03-13T12:20:12.328Z,1.10
2023-03-13T12:22:44.926Z,1.20
2023-03-13T12:25:20.015Z,1.52
2023-03-13T12:27:51.920Z,1.20
2023-03-13T12:30:40.915Z,1.30
2023-03-13T12:33:17.361Z,1.23
2023-03-13T12:35:53.159Z,1.45
2023-03-13T12:38:26.245Z,1.23
2023-03-13T12:41:12.936Z,1.20
2023-03-13T12:43:42.706Z,1.17
2023-03-13T12:46:22.242Z,1.23
2023-03-13T12:49:07.719Z,1.30
2023-03-13T12:51:54.766Z,1.20
2023-03-13T12:54:22.446Z,1.30
2023-03-13T12:57:29.127Z,1.37
2023-03-13T13:00:00.216Z,1.20
2023-03-13T13:02:30.516Z,1.20
2023-03-13T13:05:00.161Z,1.25
2023-03-13T13:07:34.220Z,1.33
2023-03-13T13:10:21.122Z,1.40
2023-03-13T13:13:15.142Z,1.15
2023-03-13T13:15:58.637Z,1.17
2023-03-13T13:18:28.331Z,1.20
2023-03-13T13:21:02.488Z,1.40
2023-03-13T13:23:34.592Z,1.30
2023-03-13T13:26:29.636Z,1.50
2023-03-13T13:29:02.038Z,1.55
2023-03-13T13:31:49.442Z,1.10
2023-03-13T13:34:31.794Z,1.10
2023-03-13T13:37:01.643Z,1.13
2023-03-13T13:39:48.158Z,1.45
2023-03-13T13:42:36.649Z,1.20
2023-03-13T13:45:04.854Z,1.20
2023-03-13T13:47:33.756Z,1.25
2023-03-13T13:50:01.274Z,1.17
2023-03-13T13:52:43.539Z,1.35
2023-03-13T13:55:30.286Z,1.23
2023-03-13T13:58:10.754Z,1.17
2023-03-13T14:00:45.636Z,1.27
2023-03-13T14:03:23.358Z,1.30
2023-03-13T14:05:55.239Z,1.20
2023-03-13T14:08:27.308Z,1.38
2023-03-13T14:11:25.000Z,1.13
2023-03-13T14:14:11.691Z,1.20
2023-03-13T14:16:39.340Z,1.40
2023-03-13T14:19:19.350Z,1.30
2023-03-13T14:21:46.052Z,1.30
2023-03-13T14:24:14.727Z,1.40
2023-03-13T14:26:43.733Z,1.40
2023-03-13T14:29:17.839Z,1.45
2023-03-13T14:31:52.881Z,1.40
2023-03-13T14:34:19.947Z,1.25
2023-03-13T14:36:51.462Z,1.40
2023-03-13T14:39:39.988Z,1.75
2023-03-13T14:42:11.857Z,1.30
2023-03-13T14:44:40.189Z,1.20
2023-03-13T14:47:12.219Z,1.40
2023-03-13T14:49:39.015Z,1.20
2023-03-13T14:52:17.197Z,1.33
2023-03-13T14:55:04.424Z,1.30
2023-03-13T14:57:32.510Z,1.20
2023-03-13T15:00:34.940Z,1.33
2023-03-13T15:03:17.260Z,1.30
2023-03-13T15:05:46.676Z,1.23
2023-03-13T15:08:17.164Z,1.10
2023-03-13T15:10:44.296Z,1.30
2023-03-13T15:13:23.474Z,1.20
2023-03-13T15:15:51.087Z,1.30
2023-03-13T15:18:20.916Z,1.30
2023-03-13T15:20:52.524Z,1.17
2023-03-13T15:23:19.799Z,1.30
2023-03-13T15:25:47.059Z,1.10
2023-03-13T15:28:16.657Z,1.50
2023-03-13T15:30:45.021Z,1.20
2023-03-13T15:33:15.828Z,1.20
2023-03-13T15:35:44.265Z,1.40
2023-03-13T15:38:14.831Z,1.30
2023-03-13T15:40:42.356Z,1.10
2023-03-13T15:43:09.572Z,1.20
2023-03-13T15:45:37.997Z,1.35
2023-03-13T15:48:13.630Z,1.05
2023-03-13T15:50:40.244Z,1.15
2023-03-13T15:53:17.181Z,1.40
2023-03-13T15:55:43.879Z,1.35
2023-03-13T15:58:13.260Z,1.17
2023-03-13T16:00:40.965Z,1.23
2023-03-13T16:03:17.417Z,1.30
2023-03-13T16:05:44.113Z,1.30
2023-03-13T16:08:29.199Z,1.17
2023-03-13T16:11:00.664Z,1.30
2023-03-13T16:13:27.738Z,1.35
2023-03-13T16:15:54.579Z,1.43
2023-03-13T16:18:23.607Z,1.20
2023-03-13T16:20:51.030Z,1.23
2023-03-13T16:23:17.943Z,1.50
2023-03-13T16:25:45.784Z,1.10
2023-03-13T16:28:13.868Z,1.30
2023-03-13T16:30:43.552Z,1.40
2023-03-13T16:33:10.903Z,1.17
2023-03-13T16:35:38.220Z,1.48
2023-03-13T16:38:08.198Z,1.30
2023-03-13T16:40:35.200Z,1.30
2023-03-13T16:43:02.432Z,1.40
2023-03-13T16:45:29.228Z,1.20
2023-03-13T16:47:56.364Z,1.40
2023-03-13T16:50:23.552Z,1.55
2023-03-13T16:52:51.352Z,1.30
2023-03-13T16:55:18.875Z,1.10
2023-03-13T16:57:45.939Z,1.33
2023-03-13T17:00:16.758Z,1.20
2023-03-13T17:02:44.064Z,1.30
2023-03-13T17:05:12.354Z,1.33
2023-03-13T17:07:39.415Z,1.30
2023-03-13T17:10:15.567Z,1.25
2023-03-13T17:12:42.628Z,1.38
2023-03-13T17:15:09.884Z,1.10
2023-03-13T17:17:37.155Z,1.40
2023-03-13T17:20:05.664Z,1.30
2023-03-13T17:22:32.790Z,1.20
2023-03-13T17:24:59.443Z,1.10
2023-03-13T17:27:26.700Z,1.20
2023-03-13T17:29:53.774Z,1.30
2023-03-13T17:32:21.301Z,1.48
2023-03-13T17:34:48.438Z,1.40
2023-03-13T17:37:17.010Z,1.30
2023-03-13T17:39:44.464Z,1.52
2023-03-13T17:42:11.505Z,1.98
2023-03-13T17:44:39.276Z,1.80
2023-03-13T17:47:17.760Z,1.42
2023-03-13T17:49:47.647Z,1.50
2023-03-13T17:52:15.468Z,1.67
2023-03-13T17:54:42.888Z,1.75
2023-03-13T17:57:14.119Z,2.10
2023-03-13T17:59:41.124Z,2.08
2023-03-13T18:02:13.792Z,2.90
2023-03-13T18:04:42.537Z,2.00
2023-03-13T18:07:18.629Z,1.60
2023-03-13T18:09:47.630Z,1.70
2023-03-13T18:12:15.388Z,1.50
2023-03-13T18:14:43.070Z,1.88
2023-03-13T18:17:15.333Z,2.33
2023-03-13T18:19:43.759Z,1.77
2023-03-13T18:22:13.602Z,16.77
2023-03-13T18:24:40.762Z,3.50
2023-03-13T18:27:12.559Z,3.25
2023-03-13T18:29:40.184Z,6.05
2023-03-13T18:32:07.564Z,7.10
2023-03-13T18:34:35.107Z,4.97
2023-03-13T18:37:03.899Z,2.60
2023-03-13T18:39:32.095Z,2.10
2023-03-13T18:41:59.873Z,1.80
2023-03-13T18:44:27.068Z,1.88
2023-03-13T18:46:54.148Z,1.73
2023-03-13T18:49:22.293Z,1.70
2023-03-13T18:51:50.050Z,1.95
2023-03-13T18:54:17.228Z,2.00
2023-03-13T18:56:45.258Z,1.63
2023-03-13T18:59:13.568Z,1.70
2023-03-13T19:01:40.867Z,1.67
2023-03-13T19:04:07.971Z,4.40
2023-03-13T19:06:36.226Z,4.18
2023-03-13T19:09:20.974Z,2.20
2023-03-13T19:11:55.701Z,2.10
2023-03-13T19:14:23.436Z,1.45
2023-03-13T19:16:52.744Z,1.73
2023-03-13T19:19:24.823Z,1.50
2023-03-13T19:21:55.563Z,1.55
2023-03-13T19:24:24.011Z,1.45
2023-03-13T19:26:53.840Z,1.20
2023-03-13T19:29:22.588Z,1.27
2023-03-13T19:31:50.058Z,1.30
2023-03-13T19:34:17.611Z,1.20
2023-03-13T19:36:47.257Z,1.10
2023-03-13T19:39:15.608Z,1.23
2023-03-13T19:41:42.991Z,1.30
2023-03-13T19:44:10.237Z,1.27
2023-03-13T19:46:39.322Z,1.25
2023-03-13T19:49:06.465Z,1.50
2023-03-13T19:51:33.552Z,1.23
2023-03-13T19:54:00.554Z,1.33
2023-03-13T19:56:29.110Z,1.35
2023-03-13T19:58:58.803Z,1.40
2023-03-13T20:01:26.126Z,1.23
2023-03-13T20:03:53.549Z,1.52
2023-03-13T20:06:22.201Z,1.42
2023-03-13T20:08:49.647Z,1.80
2023-03-13T20:11:16.838Z,1.60
2023-03-13T20:13:44.051Z,2.00
2023-03-13T20:16:11.656Z,2.00
2023-03-13T20:18:39.475Z,2.20
2023-03-13T20:21:07.250Z,2.00
2023-03-13T20:23:34.372Z,0.50
2023-03-13T20:26:02.483Z,0.10
2023-03-13T20:28:29.577Z,0.20
2023-03-13T20:30:56.707Z,0.10
2023-03-13T20:33:23.903Z,0.20
2023-03-13T20:35:51.075Z,0.20
2023-03-13T20:38:18.241Z,0.10
2023-03-13T20:40:51.742Z,0.10
2023-03-13T20:43:18.851Z,0.10
2023-03-13T20:45:45.946Z,0.37
2023-03-13T20:48:13.033Z,0.10
2023-03-13T20:50:40.128Z,0.20
2023-03-13T20:53:07.449Z,0.22
2023-03-13T20:55:34.129Z,0.15
2023-03-13T20:58:01.221Z,0.10
2023-03-13T21:00:28.277Z,0.30
2023-03-13T21:02:55.410Z,0.10
2023-03-13T21:05:22.557Z,0.10
2023-03-13T21:07:49.700Z,0.10
2023-03-13T21:10:18.076Z,0.10
2023-03-13T21:12:46.012Z,0.40
2023-03-13T21:15:13.627Z,0.38
2023-03-13T21:17:40.847Z,0.20
2023-03-13T21:20:11.712Z,0.10
2023-03-13T21:22:39.710Z,0.13
2023-03-13T21:25:07.988Z,0.70
2023-03-13T21:27:35.647Z,0.17
2023-03-13T21:30:03.313Z,0.10
2023-03-13T21:32:30.046Z,0.10
2023-03-13T21:34:57.184Z,0.20
2023-03-13T21:37:23.903Z,0.10
2023-03-13T21:39:52.066Z,0.10
2023-03-13T21:42:20.228Z,0.80
2023-03-13T21:44:48.250Z,0.20
2023-03-13T21:47:23.918Z,0.10
2023-03-13T21:49:51.496Z,0.20
2023-03-13T21:52:18.679Z,0.10
2023-03-13T21:54:48.045Z,0.10
2023-03-13T21:57:15.671Z,0.00
2023-03-13T21:59:43.141Z,0.00
2023-03-13T22:02:12.694Z,0.00
2023-03-13T22:04:40.108Z,0.10
2023-03-13T22:07:07.500Z,0.10
2023-03-13T22:09:34.842Z,0.10
2023-03-13T22:12:01.881Z,0.10
2023-03-13T22:14:29.063Z,0.20
2023-03-13T22:16:55.817Z,0.20
2023-03-13T22:19:22.526Z,0.20
2023-03-13T22:21:49.628Z,0.20
2023-03-13T22:24:16.309Z,0.10
2023-03-13T22:26:42.992Z,0.10
2023-03-13T22:29:10.069Z,0.10
2023-03-13T22:31:37.117Z,0.30
2023-03-13T22:34:04.203Z,0.10
2023-03-13T22:36:31.277Z,0.10
2023-03-13T22:38:58.392Z,0.10
2023-03-13T22:41:25.744Z,0.20
2023-03-13T22:43:52.893Z,0.00
2023-03-13T22:46:20.079Z,0.07
2023-03-13T22:48:47.152Z,0.10
2023-03-13T22:51:16.133Z,0.05
2023-03-13T22:53:43.326Z,0.10
2023-03-13T22:56:11.890Z,0.10
2023-03-13T22:58:39.822Z,0.10
2023-03-13T23:01:07.840Z,0.10
2023-03-13T23:03:34.999Z,0.20
2023-03-13T23:06:04.689Z,0.10
2023-03-13T23:08:31.765Z,0.10
2023-03-13T23:11:00.960Z,0.20
2023-03-13T23:13:28.048Z,0.35
2023-03-13T23:15:56.344Z,0.10
2023-03-13T23:18:24.531Z,0.10
2023-03-13T23:20:51.753Z,0.20
2023-03-13T23:23:18.885Z,0.10
2023-03-13T23:25:46.013Z,0.10
2023-03-13T23:28:13.171Z,0.10
2023-03-13T23:30:40.239Z,0.10
2023-03-13T23:33:07.315Z,0.10
2023-03-13T23:35:37.103Z,0.10
2023-03-13T23:38:04.548Z,0.10
2023-03-13T23:40:32.592Z,0.10
2023-03-13T23:42:59.706Z,0.10
2023-03-13T23:45:26.874Z,0.10
2023-03-13T23:47:54.446Z,0.10
2023-03-13T23:50:21.950Z,0.10
2023-03-13T23:52:49.026Z,0.10
2023-03-13T23:55:16.190Z,0.10
2023-03-13T23:57:43.307Z,0.07
